createdAt,value
2022-11-26T00:02:36.804Z,18.35
2022-11-26T00:06:44.543Z,15.55
2022-11-26T00:10:48.532Z,16.63
2022-11-26T00:14:50.735Z,16.13
2022-11-26T00:18:52.177Z,18.90
2022-11-26T00:22:56.841Z,20.65
2022-11-26T00:27:00.216Z,18.70
2022-11-26T00:31:05.059Z,18.48
2022-11-26T00:35:06.867Z,19.05
2022-11-26T00:39:26.368Z,20.27
2022-11-26T00:43:28.162Z,19.53
2022-11-26T00:47:29.632Z,17.77
2022-11-26T00:51:31.212Z,19.23
2022-11-26T00:55:38.743Z,19.30
2022-11-26T00:59:40.156Z,19.73
2022-11-26T01:03:42.890Z,19.42
2022-11-26T01:07:45.479Z,19.08
2022-11-26T01:11:52.336Z,19.60
2022-11-26T01:15:57.147Z,25.77
2022-11-26T01:19:58.591Z,18.83
2022-11-26T01:24:00.025Z,19.52
2022-11-26T01:28:01.489Z,19.00
2022-11-26T01:32:03.077Z,20.17
2022-11-26T01:36:17.996Z,19.85
2022-11-26T01:40:32.639Z,20.65
2022-11-26T01:44:36.961Z,20.38
2022-11-26T01:48:38.767Z,18.67
2022-11-26T01:52:40.377Z,18.13
2022-11-26T01:56:47.741Z,18.77
2022-11-26T02:00:51.253Z,19.27
2022-11-26T02:05:11.790Z,17.98
2022-11-26T02:09:13.831Z,19.20
2022-11-26T02:13:15.306Z,18.40
2022-11-26T02:17:49.286Z,17.92
2022-11-26T02:21:59.327Z,20.50
2022-11-26T02:26:38.145Z,22.00
2022-11-26T02:30:46.071Z,22.38
2022-11-26T02:35:09.116Z,22.08
2022-11-26T02:39:17.656Z,23.38
2022-11-26T02:43:20.228Z,24.90
2022-11-26T02:47:24.755Z,24.85
2022-11-26T02:51:31.964Z,25.88
2022-11-26T02:59:42.786Z,24.70
2022-11-26T03:03:48.813Z,25.83
2022-11-26T03:07:52.851Z,24.73
2022-11-26T03:11:54.379Z,27.08
2022-11-26T03:15:55.912Z,25.65
2022-11-26T03:19:57.511Z,26.40
2022-11-26T03:23:59.044Z,24.02
2022-11-26T03:28:01.111Z,28.00
2022-11-26T03:32:02.648Z,25.48
2022-11-26T03:36:04.552Z,27.20
2022-11-26T03:40:07.348Z,32.17
2022-11-26T03:44:08.857Z,27.52
2022-11-26T03:48:10.393Z,26.63
2022-11-26T03:52:12.166Z,27.05
2022-11-26T03:56:13.703Z,27.05
2022-11-26T04:00:15.548Z,25.83
2022-11-26T04:04:17.089Z,26.83
2022-11-26T04:08:18.576Z,23.80
2022-11-26T04:12:20.005Z,22.90
2022-11-26T04:16:22.067Z,25.63
2022-11-26T04:20:23.560Z,25.63
2022-11-26T04:24:25.093Z,26.35
2022-11-26T04:28:26.583Z,25.38
2022-11-26T04:32:28.115Z,19.08
2022-11-26T04:36:29.667Z,26.65
2022-11-26T04:40:31.617Z,25.80
2022-11-26T04:44:33.062Z,27.77
2022-11-26T04:48:34.619Z,24.80
2022-11-26T04:52:36.451Z,23.63
2022-11-26T04:56:37.899Z,21.20
2022-11-26T05:00:40.269Z,25.35
2022-11-26T05:04:41.852Z,24.20
2022-11-26T05:08:43.390Z,24.13
2022-11-26T05:12:44.884Z,21.90
2022-11-26T05:16:46.453Z,24.73
2022-11-26T05:20:48.123Z,16.92
2022-11-26T05:24:49.641Z,22.60
2022-11-26T05:28:51.121Z,21.15
2022-11-26T05:32:52.595Z,23.05
2022-11-26T05:36:54.186Z,21.25
2022-11-26T05:40:55.825Z,20.83
2022-11-26T05:44:57.438Z,18.65
2022-11-26T05:48:58.928Z,19.02
2022-11-26T05:53:00.612Z,18.52
2022-11-26T05:57:02.062Z,17.70
2022-11-26T06:01:09.033Z,18.60
2022-11-26T06:05:11.546Z,18.27
2022-11-26T06:09:13.781Z,17.17
2022-11-26T06:13:15.409Z,17.92
2022-11-26T06:17:16.920Z,16.40
2022-11-26T06:21:18.482Z,15.27
2022-11-26T06:25:20.075Z,16.25
2022-11-26T06:29:27.558Z,18.25
2022-11-26T06:33:29.570Z,15.15
2022-11-26T06:37:31.983Z,8.68
2022-11-26T06:41:33.478Z,16.02
2022-11-26T06:45:35.237Z,11.07
2022-11-26T06:49:37.199Z,12.10
2022-11-26T06:53:39.144Z,13.60
2022-11-26T06:57:42.251Z,12.65
2022-11-26T07:01:46.701Z,13.57
2022-11-26T07:05:48.254Z,12.95
2022-11-26T07:09:49.795Z,12.98
2022-11-26T07:13:52.317Z,12.20
2022-11-26T07:17:58.079Z,11.95
2022-11-26T07:22:00.708Z,11.85
2022-11-26T07:26:03.366Z,12.75
2022-11-26T07:30:09.520Z,11.88
2022-11-26T07:34:10.982Z,12.27
2022-11-26T07:38:12.556Z,12.10
2022-11-26T07:42:14.595Z,12.52
2022-11-26T07:46:20.137Z,11.52
2022-11-26T07:50:23.602Z,11.80
2022-11-26T07:54:25.173Z,12.10
2022-11-26T07:58:29.411Z,12.20
2022-11-26T08:02:31.036Z,11.48
2022-11-26T08:06:33.557Z,11.48
2022-11-26T08:10:35.167Z,10.80
2022-11-26T08:14:37.070Z,8.80
2022-11-26T08:18:39.464Z,16.33
2022-11-26T08:22:41.521Z,9.07
2022-11-26T08:26:44.786Z,9.70
2022-11-26T08:30:47.745Z,7.40
2022-11-26T08:34:49.242Z,7.40
2022-11-26T08:38:50.790Z,8.05
2022-11-26T08:42:52.317Z,8.40
2022-11-26T08:46:53.809Z,7.15
2022-11-26T08:51:03.863Z,6.80
2022-11-26T08:55:05.621Z,7.97
2022-11-26T08:59:07.089Z,10.02
2022-11-26T09:03:08.700Z,7.82
2022-11-26T09:07:10.283Z,8.52
2022-11-26T09:11:12.191Z,8.82
2022-11-26T09:15:13.698Z,7.90
2022-11-26T09:19:15.686Z,7.25
2022-11-26T09:23:17.109Z,6.85
2022-11-26T09:27:18.573Z,7.63
2022-11-26T09:31:20.637Z,7.43
2022-11-26T09:35:22.173Z,7.63
2022-11-26T09:39:23.660Z,8.43
2022-11-26T09:43:53.445Z,7.22
2022-11-26T09:47:55.146Z,8.10
2022-11-26T09:51:59.360Z,7.88
2022-11-26T09:56:01.546Z,7.50
2022-11-26T10:00:04.893Z,7.55
2022-11-26T10:04:18.085Z,7.60
2022-11-26T10:08:56.457Z,5.72
2022-11-26T10:13:18.430Z,5.85
2022-11-26T10:17:36.370Z,6.22
2022-11-26T10:26:15.417Z,4.38
2022-11-26T10:30:23.340Z,5.45
2022-11-26T10:34:39.497Z,7.70
2022-11-26T10:38:41.195Z,5.60
2022-11-26T10:42:56.066Z,6.60
2022-11-26T10:46:58.797Z,5.22
2022-11-26T10:51:06.079Z,6.60
2022-11-26T10:55:26.878Z,8.05
2022-11-26T10:59:46.093Z,7.20
2022-11-26T11:04:08.860Z,7.07
2022-11-26T11:08:32.468Z,8.05
2022-11-26T11:12:39.005Z,6.93
2022-11-26T11:16:45.967Z,6.80
2022-11-26T11:20:56.321Z,8.52
2022-11-26T11:24:59.826Z,7.30
2022-11-26T11:29:01.301Z,7.90
2022-11-26T11:33:14.841Z,7.18
2022-11-26T11:37:21.188Z,7.45
2022-11-26T11:41:48.333Z,6.45
2022-11-26T11:46:02.892Z,6.85
2022-11-26T11:50:13.732Z,6.90
2022-11-26T11:54:31.320Z,6.78
2022-11-26T11:58:44.654Z,7.38
2022-11-26T12:03:12.247Z,6.53
2022-11-26T12:07:22.516Z,4.43
2022-11-26T12:11:48.846Z,5.95
2022-11-26T12:16:00.949Z,6.63
2022-11-26T12:20:13.947Z,5.75
2022-11-26T12:24:29.164Z,5.50
2022-11-26T12:28:58.290Z,4.97
2022-11-26T12:33:05.961Z,4.65
2022-11-26T12:37:19.426Z,4.70
2022-11-26T12:41:32.142Z,6.07
2022-11-26T12:45:58.524Z,4.57
2022-11-26T12:50:21.060Z,6.75
2022-11-26T12:54:39.320Z,4.30
2022-11-26T12:58:54.417Z,4.50
2022-11-26T13:02:56.153Z,5.70
2022-11-26T13:07:00.228Z,5.43
2022-11-26T13:11:26.189Z,4.85
2022-11-26T13:15:35.536Z,7.35
2022-11-26T13:19:47.561Z,7.38
2022-11-26T13:24:20.789Z,6.80
2022-11-26T13:28:44.151Z,6.93
2022-11-26T13:33:16.474Z,7.10
2022-11-26T13:37:27.022Z,7.47
2022-11-26T13:41:40.494Z,7.88
2022-11-26T13:45:59.323Z,6.38
2022-11-26T13:50:12.501Z,7.85
2022-11-26T13:54:22.594Z,7.05
2022-11-26T13:58:30.386Z,7.30
2022-11-26T14:02:36.531Z,7.47
2022-11-26T14:06:58.621Z,6.88
2022-11-26T14:11:00.090Z,6.90
2022-11-26T14:15:01.489Z,6.45
2022-11-26T14:19:08.968Z,6.60
2022-11-26T14:23:41.554Z,5.90
2022-11-26T14:27:55.388Z,7.10
2022-11-26T14:31:56.911Z,6.53
2022-11-26T14:35:59.258Z,6.45
2022-11-26T14:40:10.498Z,6.05
2022-11-26T14:44:14.160Z,7.15
2022-11-26T14:48:27.748Z,23.42
2022-11-26T14:52:34.596Z,7.38
2022-11-26T14:56:40.892Z,5.05
2022-11-26T15:01:02.134Z,6.97
2022-11-26T15:05:14.417Z,7.95
2022-11-26T15:09:19.087Z,8.00
2022-11-26T15:13:31.631Z,8.23
2022-11-26T15:17:34.120Z,6.50
2022-11-26T15:21:35.691Z,7.82
2022-11-26T15:25:38.204Z,9.60
2022-11-26T15:29:41.420Z,7.72
2022-11-26T15:33:44.205Z,6.85
2022-11-26T15:37:45.665Z,5.75
2022-11-26T15:41:47.099Z,6.68
2022-11-26T15:45:49.675Z,7.15
2022-11-26T15:49:58.727Z,7.00
2022-11-26T15:54:02.485Z,7.00
2022-11-26T15:58:11.505Z,6.45
2022-11-26T16:02:21.830Z,7.53
2022-11-26T16:07:08.909Z,5.43
2022-11-26T16:11:20.828Z,6.88
2022-11-26T16:15:27.259Z,5.88
2022-11-26T16:19:30.108Z,7.55
2022-11-26T16:23:31.595Z,7.00
2022-11-26T16:27:33.731Z,8.77
2022-11-26T16:31:35.125Z,8.68
2022-11-26T16:35:45.807Z,6.57
2022-11-26T16:39:49.713Z,6.93
2022-11-26T16:43:51.378Z,8.15
2022-11-26T16:47:55.232Z,7.93
2022-11-26T16:51:56.677Z,8.32
2022-11-26T16:55:58.429Z,11.98
2022-11-26T17:00:03.116Z,10.57
2022-11-26T17:04:04.580Z,11.63
2022-11-26T17:08:09.454Z,14.82
2022-11-26T17:12:19.225Z,12.65
2022-11-26T17:16:22.898Z,12.13
2022-11-26T17:20:25.532Z,11.45
2022-11-26T17:24:31.258Z,11.50
2022-11-26T17:28:33.190Z,10.75
2022-11-26T17:32:34.918Z,11.15
2022-11-26T17:36:37.162Z,13.13
2022-11-26T17:40:38.661Z,12.23
2022-11-26T17:44:40.146Z,13.27
2022-11-26T17:48:41.623Z,11.70
2022-11-26T17:52:43.064Z,11.57
2022-11-26T17:56:44.485Z,11.05
2022-11-26T18:00:45.902Z,12.23
2022-11-26T18:04:47.528Z,11.65
2022-11-26T18:08:49.037Z,12.05
2022-11-26T18:12:53.302Z,10.75
2022-11-26T18:16:55.203Z,10.60
2022-11-26T18:20:56.772Z,12.98
2022-11-26T18:24:58.354Z,14.00
2022-11-26T18:29:01.759Z,11.65
2022-11-26T18:33:03.212Z,12.98
2022-11-26T18:37:04.678Z,9.88
2022-11-26T18:41:06.760Z,9.30
2022-11-26T18:45:10.635Z,10.90
2022-11-26T18:49:12.055Z,9.05
2022-11-26T18:53:13.673Z,10.52
2022-11-26T18:57:15.059Z,11.95
2022-11-26T19:01:26.026Z,10.38
2022-11-26T19:05:27.516Z,10.15
2022-11-26T19:09:29.061Z,10.05
2022-11-26T19:13:30.521Z,7.90
2022-11-26T19:17:32.044Z,8.02
2022-11-26T19:21:34.363Z,9.38
2022-11-26T19:25:35.826Z,8.90
2022-11-26T19:29:37.355Z,8.65
2022-11-26T19:33:39.795Z,8.90
2022-11-26T19:37:41.205Z,8.40
2022-11-26T19:41:42.804Z,8.85
2022-11-26T19:45:44.289Z,8.60
2022-11-26T19:49:45.802Z,8.23
2022-11-26T19:53:49.214Z,8.55
2022-11-26T19:57:50.632Z,9.70
2022-11-26T20:01:52.364Z,7.97
2022-11-26T20:05:54.341Z,8.98
2022-11-26T20:09:55.882Z,9.32
2022-11-26T20:13:58.335Z,8.98
2022-11-26T20:17:59.774Z,9.40
2022-11-26T20:22:01.214Z,9.77
2022-11-26T20:26:03.585Z,8.70
2022-11-26T20:30:05.964Z,9.45
2022-11-26T20:34:08.583Z,8.07
2022-11-26T20:38:10.541Z,9.57
2022-11-26T20:42:12.014Z,9.85
2022-11-26T20:46:14.877Z,10.60
2022-11-26T20:50:16.444Z,11.13
2022-11-26T20:54:17.840Z,9.60
2022-11-26T20:58:19.823Z,10.10
2022-11-26T21:02:21.299Z,9.55
2022-11-26T21:06:29.678Z,9.70
2022-11-26T21:10:31.337Z,10.25
2022-11-26T21:14:32.775Z,9.80
2022-11-26T21:18:34.335Z,10.95
2022-11-26T21:22:38.213Z,10.50
2022-11-26T21:26:39.684Z,11.15
2022-11-26T21:30:42.172Z,9.77
2022-11-26T21:34:43.672Z,10.27
2022-11-26T21:38:48.836Z,8.73
2022-11-26T21:42:50.267Z,9.00
2022-11-26T21:46:51.719Z,9.80
2022-11-26T21:50:53.168Z,10.18
2022-11-26T21:54:55.904Z,10.43
2022-11-26T21:59:00.944Z,10.82
2022-11-26T22:03:05.943Z,9.55
2022-11-26T22:07:10.167Z,10.43
2022-11-26T22:11:14.982Z,11.13
2022-11-26T22:15:16.509Z,9.95
2022-11-26T22:19:18.420Z,10.35
2022-11-26T22:23:20.118Z,11.35
2022-11-26T22:27:21.579Z,11.18
2022-11-26T22:31:27.026Z,10.20
2022-11-26T22:35:28.794Z,11.15
2022-11-26T22:39:31.688Z,9.95
2022-11-26T22:43:33.584Z,11.05
2022-11-26T22:47:35.076Z,11.40
2022-11-26T22:51:36.546Z,11.90
2022-11-26T22:55:37.963Z,10.77
2022-11-26T22:59:39.623Z,10.85
2022-11-26T23:03:41.272Z,11.82
2022-11-26T23:07:42.950Z,9.82
2022-11-26T23:11:44.630Z,10.90
2022-11-26T23:15:47.344Z,11.75
2022-11-26T23:19:48.786Z,10.23
2022-11-26T23:23:51.063Z,11.73
2022-11-26T23:27:52.484Z,11.23
2022-11-26T23:31:53.999Z,11.88
2022-11-26T23:35:56.481Z,10.32
2022-11-26T23:39:57.919Z,11.38
2022-11-26T23:43:59.453Z,10.88
2022-11-26T23:48:00.938Z,10.35
2022-11-26T23:52:02.392Z,10.80
2022-11-26T23:56:11.900Z,11.88
